sensor_id;sensor_type;location;lat;lon;timestamp;temperature;humidity
23568;DHT22;11962;50.838;4.430;2023-03-07T00:01:04;7.10;99.90
23568;DHT22;11962;50.838;4.430;2023-03-07T00:03:30;7.10;99.90
23568;DHT22;11962;50.838;4.430;2023-03-07T00:06:05;7.10;99.90
23568;DHT22;11962;50.838;4.430;2023-03-07T00:08:31;7.10;99.90
23568;DHT22;11962;50.838;4.430;2023-03-07T00:11:06;7.20;99.90
23568;DHT22;11962;50.838;4.430;2023-03-07T00:13:33;7.20;99.90
23568;DHT22;11962;50.838;4.430;2023-03-07T00:16:03;7.20;99.90
23568;DHT22;11962;50.838;4.430;2023-03-07T00:18:30;7.20;99.90
23568;DHT22;11962;50.838;4.430;2023-03-07T00:20:57;7.20;99.90
23568;DHT22;11962;50.838;4.430;2023-03-07T00:23:23;7.30;99.90
23568;DHT22;11962;50.838;4.430;2023-03-07T00:25:57;7.30;99.90
23568;DHT22;11962;50.838;4.430;2023-03-07T00:28:23;7.40;99.90
23568;DHT22;11962;50.838;4.430;2023-03-07T00:30:48;7.40;99.90
23568;DHT22;11962;50.838;4.430;2023-03-07T00:33:14;7.40;99.90
23568;DHT22;11962;50.838;4.430;2023-03-07T00:35:40;7.40;99.90
23568;DHT22;11962;50.838;4.430;2023-03-07T00:38:05;7.40;99.90
23568;DHT22;11962;50.838;4.430;2023-03-07T00:40:31;7.50;99.90
23568;DHT22;11962;50.838;4.430;2023-03-07T00:42:57;7.40;99.90
23568;DHT22;11962;50.838;4.430;2023-03-07T00:45:22;7.40;99.90
23568;DHT22;11962;50.838;4.430;2023-03-07T00:47:48;7.40;99.90
23568;DHT22;11962;50.838;4.430;2023-03-07T00:50:14;7.40;99.90
23568;DHT22;11962;50.838;4.430;2023-03-07T00:52:39;7.40;99.90
23568;DHT22;11962;50.838;4.430;2023-03-07T00:55:06;7.40;99.90
23568;DHT22;11962;50.838;4.430;2023-03-07T00:57:32;7.30;99.90
23568;DHT22;11962;50.838;4.430;2023-03-07T00:59:57;7.40;99.90
23568;DHT22;11962;50.838;4.430;2023-03-07T01:02:26;7.40;99.90
23568;DHT22;11962;50.838;4.430;2023-03-07T01:04:51;7.40;99.90
23568;DHT22;11962;50.838;4.430;2023-03-07T01:07:17;7.40;99.90
23568;DHT22;11962;50.838;4.430;2023-03-07T01:09:43;7.40;99.90
23568;DHT22;11962;50.838;4.430;2023-03-07T01:12:08;7.30;99.90
23568;DHT22;11962;50.838;4.430;2023-03-07T01:14:37;7.30;99.90
23568;DHT22;11962;50.838;4.430;2023-03-07T01:17:03;7.30;99.90
23568;DHT22;11962;50.838;4.430;2023-03-07T01:19:28;7.20;99.90
23568;DHT22;11962;50.838;4.430;2023-03-07T01:21:54;7.20;99.90
23568;DHT22;11962;50.838;4.430;2023-03-07T01:24:20;7.20;99.90
23568;DHT22;11962;50.838;4.430;2023-03-07T01:26:46;7.20;99.90
23568;DHT22;11962;50.838;4.430;2023-03-07T01:29:12;7.10;99.90
23568;DHT22;11962;50.838;4.430;2023-03-07T01:31:38;7.20;99.90
23568;DHT22;11962;50.838;4.430;2023-03-07T01:34:04;7.20;99.90
23568;DHT22;11962;50.838;4.430;2023-03-07T01:36:32;7.20;99.90
23568;DHT22;11962;50.838;4.430;2023-03-07T01:39:07;7.20;99.90
23568;DHT22;11962;50.838;4.430;2023-03-07T01:41:35;7.20;99.90
23568;DHT22;11962;50.838;4.430;2023-03-07T01:44:03;7.20;99.90
23568;DHT22;11962;50.838;4.430;2023-03-07T01:46:51;7.20;99.90
23568;DHT22;11962;50.838;4.430;2023-03-07T01:51:52;7.10;99.90
23568;DHT22;11962;50.838;4.430;2023-03-07T01:54:19;7.10;99.90
23568;DHT22;11962;50.838;4.430;2023-03-07T01:56:47;7.10;99.90
23568;DHT22;11962;50.838;4.430;2023-03-07T01:59:16;7.10;99.90
23568;DHT22;11962;50.838;4.430;2023-03-07T02:01:43;7.00;99.90
23568;DHT22;11962;50.838;4.430;2023-03-07T02:04:14;7.00;99.90
23568;DHT22;11962;50.838;4.430;2023-03-07T02:06:40;7.10;99.90
23568;DHT22;11962;50.838;4.430;2023-03-07T02:09:09;7.00;99.90
23568;DHT22;11962;50.838;4.430;2023-03-07T02:11:41;7.00;99.90
23568;DHT22;11962;50.838;4.430;2023-03-07T02:14:07;7.00;99.90
23568;DHT22;11962;50.838;4.430;2023-03-07T02:16:33;6.90;99.90
23568;DHT22;11962;50.838;4.430;2023-03-07T02:18:59;6.90;99.90
23568;DHT22;11962;50.838;4.430;2023-03-07T02:24:28;7.00;99.90
23568;DHT22;11962;50.838;4.430;2023-03-07T02:26:56;7.00;99.90
23568;DHT22;11962;50.838;4.430;2023-03-07T02:29:23;7.00;99.90
23568;DHT22;11962;50.838;4.430;2023-03-07T02:31:48;6.90;99.90
23568;DHT22;11962;50.838;4.430;2023-03-07T02:34:25;6.90;99.90
23568;DHT22;11962;50.838;4.430;2023-03-07T02:36:56;6.90;99.90
23568;DHT22;11962;50.838;4.430;2023-03-07T02:39:23;6.90;99.90
23568;DHT22;11962;50.838;4.430;2023-03-07T02:41:52;6.90;99.90
23568;DHT22;11962;50.838;4.430;2023-03-07T02:44:20;6.90;99.90
23568;DHT22;11962;50.838;4.430;2023-03-07T02:46:46;6.80;99.90
23568;DHT22;11962;50.838;4.430;2023-03-07T02:49:12;6.90;99.90
23568;DHT22;11962;50.838;4.430;2023-03-07T02:51:38;6.80;99.90
23568;DHT22;11962;50.838;4.430;2023-03-07T02:54:04;6.80;99.90
23568;DHT22;11962;50.838;4.430;2023-03-07T02:56:30;6.80;99.90
23568;DHT22;11962;50.838;4.430;2023-03-07T02:58:55;6.80;99.90
23568;DHT22;11962;50.838;4.430;2023-03-07T03:01:22;6.90;99.90
23568;DHT22;11962;50.838;4.430;2023-03-07T03:03:47;6.80;99.90
23568;DHT22;11962;50.838;4.430;2023-03-07T03:06:13;6.80;99.90
23568;DHT22;11962;50.838;4.430;2023-03-07T03:08:39;6.80;99.90
23568;DHT22;11962;50.838;4.430;2023-03-07T03:11:05;6.80;99.90
23568;DHT22;11962;50.838;4.430;2023-03-07T03:13:31;6.80;99.90
23568;DHT22;11962;50.838;4.430;2023-03-07T03:15:57;6.70;99.90
23568;DHT22;11962;50.838;4.430;2023-03-07T03:18:23;6.80;99.90
23568;DHT22;11962;50.838;4.430;2023-03-07T03:20:51;6.80;99.90
23568;DHT22;11962;50.838;4.430;2023-03-07T03:23:17;6.80;99.90
23568;DHT22;11962;50.838;4.430;2023-03-07T03:25:42;6.80;99.90
23568;DHT22;11962;50.838;4.430;2023-03-07T03:28:08;6.80;99.90
23568;DHT22;11962;50.838;4.430;2023-03-07T03:30:34;6.90;99.90
23568;DHT22;11962;50.838;4.430;2023-03-07T03:33:01;6.90;99.90
23568;DHT22;11962;50.838;4.430;2023-03-07T03:35:27;6.80;99.90
23568;DHT22;11962;50.838;4.430;2023-03-07T03:37:53;6.90;99.90
23568;DHT22;11962;50.838;4.430;2023-03-07T03:40:19;6.90;99.90
23568;DHT22;11962;50.838;4.430;2023-03-07T03:42:45;6.90;99.90
23568;DHT22;11962;50.838;4.430;2023-03-07T03:45:11;6.90;99.90
23568;DHT22;11962;50.838;4.430;2023-03-07T03:47:39;6.90;99.90
23568;DHT22;11962;50.838;4.430;2023-03-07T03:50:07;6.90;99.90
23568;DHT22;11962;50.838;4.430;2023-03-07T03:52:36;6.90;99.90
23568;DHT22;11962;50.838;4.430;2023-03-07T03:55:02;7.00;99.90
23568;DHT22;11962;50.838;4.430;2023-03-07T03:57:28;6.90;99.90
23568;DHT22;11962;50.838;4.430;2023-03-07T03:59:54;6.90;99.90
23568;DHT22;11962;50.838;4.430;2023-03-07T04:02:20;7.00;99.90
23568;DHT22;11962;50.838;4.430;2023-03-07T04:04:46;6.90;99.90
23568;DHT22;11962;50.838;4.430;2023-03-07T04:07:12;6.90;99.90
23568;DHT22;11962;50.838;4.430;2023-03-07T04:09:37;6.90;99.90
23568;DHT22;11962;50.838;4.430;2023-03-07T04:12:03;6.90;99.90
23568;DHT22;11962;50.838;4.430;2023-03-07T04:14:29;6.90;99.90
23568;DHT22;11962;50.838;4.430;2023-03-07T04:16:55;6.80;99.90
23568;DHT22;11962;50.838;4.430;2023-03-07T04:19:20;6.90;99.90
23568;DHT22;11962;50.838;4.430;2023-03-07T04:21:46;6.90;99.90
23568;DHT22;11962;50.838;4.430;2023-03-07T04:24:12;6.80;99.90
23568;DHT22;11962;50.838;4.430;2023-03-07T04:26:37;6.80;99.90
23568;DHT22;11962;50.838;4.430;2023-03-07T04:29:03;6.80;99.90
23568;DHT22;11962;50.838;4.430;2023-03-07T04:31:29;6.90;99.90
23568;DHT22;11962;50.838;4.430;2023-03-07T04:33:56;6.90;99.90
23568;DHT22;11962;50.838;4.430;2023-03-07T04:36:22;6.80;99.90
23568;DHT22;11962;50.838;4.430;2023-03-07T04:38:48;6.80;99.90
23568;DHT22;11962;50.838;4.430;2023-03-07T04:41:19;6.80;99.90
23568;DHT22;11962;50.838;4.430;2023-03-07T04:43:45;6.90;99.90
23568;DHT22;11962;50.838;4.430;2023-03-07T04:46:12;6.80;99.90
23568;DHT22;11962;50.838;4.430;2023-03-07T04:48:38;6.80;99.90
23568;DHT22;11962;50.838;4.430;2023-03-07T04:51:04;6.80;99.90
23568;DHT22;11962;50.838;4.430;2023-03-07T04:53:31;6.80;99.90
23568;DHT22;11962;50.838;4.430;2023-03-07T04:55:58;6.70;99.90
23568;DHT22;11962;50.838;4.430;2023-03-07T04:58:24;6.70;99.90
23568;DHT22;11962;50.838;4.430;2023-03-07T05:00:50;6.70;99.90
23568;DHT22;11962;50.838;4.430;2023-03-07T05:03:16;6.70;99.90
23568;DHT22;11962;50.838;4.430;2023-03-07T05:05:41;6.70;99.90
23568;DHT22;11962;50.838;4.430;2023-03-07T05:08:07;6.70;99.90
23568;DHT22;11962;50.838;4.430;2023-03-07T05:10:34;6.70;99.90
23568;DHT22;11962;50.838;4.430;2023-03-07T05:13:00;6.70;99.90
23568;DHT22;11962;50.838;4.430;2023-03-07T05:15:26;6.80;99.90
23568;DHT22;11962;50.838;4.430;2023-03-07T05:17:52;6.80;99.90
23568;DHT22;11962;50.838;4.430;2023-03-07T05:20:17;6.90;99.90
23568;DHT22;11962;50.838;4.430;2023-03-07T05:22:44;6.90;99.90
23568;DHT22;11962;50.838;4.430;2023-03-07T05:25:10;7.00;99.90
23568;DHT22;11962;50.838;4.430;2023-03-07T05:27:36;7.00;99.90
23568;DHT22;11962;50.838;4.430;2023-03-07T05:30:02;7.00;99.90
23568;DHT22;11962;50.838;4.430;2023-03-07T05:32:28;7.00;99.90
23568;DHT22;11962;50.838;4.430;2023-03-07T05:34:57;7.00;99.90
23568;DHT22;11962;50.838;4.430;2023-03-07T05:37:23;7.00;99.90
23568;DHT22;11962;50.838;4.430;2023-03-07T05:39:58;7.00;99.90
23568;DHT22;11962;50.838;4.430;2023-03-07T05:42:23;7.00;99.90
23568;DHT22;11962;50.838;4.430;2023-03-07T05:44:49;7.00;99.90
23568;DHT22;11962;50.838;4.430;2023-03-07T05:47:15;7.00;99.90
23568;DHT22;11962;50.838;4.430;2023-03-07T05:49:40;7.00;99.90
23568;DHT22;11962;50.838;4.430;2023-03-07T05:52:06;7.00;99.90
23568;DHT22;11962;50.838;4.430;2023-03-07T05:54:32;7.00;99.90
23568;DHT22;11962;50.838;4.430;2023-03-07T05:56:58;7.00;99.90
23568;DHT22;11962;50.838;4.430;2023-03-07T05:59:23;7.00;99.90
23568;DHT22;11962;50.838;4.430;2023-03-07T06:01:49;7.00;99.90
23568;DHT22;11962;50.838;4.430;2023-03-07T06:04:15;7.00;99.90
23568;DHT22;11962;50.838;4.430;2023-03-07T06:06:40;7.00;99.90
23568;DHT22;11962;50.838;4.430;2023-03-07T06:09:06;7.00;99.90
23568;DHT22;11962;50.838;4.430;2023-03-07T06:11:32;7.00;99.90
23568;DHT22;11962;50.838;4.430;2023-03-07T06:13:58;7.00;99.90
23568;DHT22;11962;50.838;4.430;2023-03-07T06:16:23;7.00;99.90
23568;DHT22;11962;50.838;4.430;2023-03-07T06:18:49;7.00;99.90
23568;DHT22;11962;50.838;4.430;2023-03-07T06:21:17;7.00;99.90
23568;DHT22;11962;50.838;4.430;2023-03-07T06:23:44;7.00;99.90
23568;DHT22;11962;50.838;4.430;2023-03-07T06:26:10;7.00;99.90
23568;DHT22;11962;50.838;4.430;2023-03-07T06:28:37;7.10;99.90
23568;DHT22;11962;50.838;4.430;2023-03-07T06:31:11;7.10;99.90
23568;DHT22;11962;50.838;4.430;2023-03-07T06:33:38;7.20;99.90
23568;DHT22;11962;50.838;4.430;2023-03-07T06:36:05;7.30;99.90
23568;DHT22;11962;50.838;4.430;2023-03-07T06:38:32;7.20;99.90
23568;DHT22;11962;50.838;4.430;2023-03-07T06:41:05;7.20;99.90
23568;DHT22;11962;50.838;4.430;2023-03-07T06:43:31;7.20;99.90
23568;DHT22;11962;50.838;4.430;2023-03-07T06:45:56;7.30;99.90
23568;DHT22;11962;50.838;4.430;2023-03-07T06:48:22;7.40;99.90
23568;DHT22;11962;50.838;4.430;2023-03-07T06:50:57;7.50;99.90
23568;DHT22;11962;50.838;4.430;2023-03-07T06:53:23;7.50;99.90
23568;DHT22;11962;50.838;4.430;2023-03-07T06:55:49;7.60;99.90
23568;DHT22;11962;50.838;4.430;2023-03-07T06:58:15;7.60;99.90
23568;DHT22;11962;50.838;4.430;2023-03-07T07:00:51;7.50;99.90
23568;DHT22;11962;50.838;4.430;2023-03-07T07:03:18;7.60;99.90
23568;DHT22;11962;50.838;4.430;2023-03-07T07:05:44;7.70;99.90
23568;DHT22;11962;50.838;4.430;2023-03-07T07:08:10;7.70;99.90
23568;DHT22;11962;50.838;4.430;2023-03-07T07:10:41;7.70;99.90
23568;DHT22;11962;50.838;4.430;2023-03-07T07:13:07;7.70;99.90
23568;DHT22;11962;50.838;4.430;2023-03-07T07:15:33;7.60;99.90
23568;DHT22;11962;50.838;4.430;2023-03-07T07:17:59;7.60;99.90
23568;DHT22;11962;50.838;4.430;2023-03-07T07:20:26;7.70;99.90
23568;DHT22;11962;50.838;4.430;2023-03-07T07:22:53;7.70;99.90
23568;DHT22;11962;50.838;4.430;2023-03-07T07:25:18;7.70;99.90
23568;DHT22;11962;50.838;4.430;2023-03-07T07:27:44;7.70;99.90
23568;DHT22;11962;50.838;4.430;2023-03-07T07:30:12;7.80;99.90
23568;DHT22;11962;50.838;4.430;2023-03-07T07:32:38;7.80;99.90
23568;DHT22;11962;50.838;4.430;2023-03-07T07:35:10;7.80;99.90
23568;DHT22;11962;50.838;4.430;2023-03-07T07:37:39;8.00;99.90
23568;DHT22;11962;50.838;4.430;2023-03-07T07:40:08;8.00;99.90
23568;DHT22;11962;50.838;4.430;2023-03-07T07:42:37;7.90;99.90
23568;DHT22;11962;50.838;4.430;2023-03-07T07:45:12;7.90;99.90
23568;DHT22;11962;50.838;4.430;2023-03-07T07:47:38;7.90;99.90
23568;DHT22;11962;50.838;4.430;2023-03-07T07:50:10;7.90;99.90
23568;DHT22;11962;50.838;4.430;2023-03-07T07:52:36;7.80;99.90
23568;DHT22;11962;50.838;4.430;2023-03-07T07:55:01;7.80;99.90
23568;DHT22;11962;50.838;4.430;2023-03-07T07:57:27;7.80;99.90
23568;DHT22;11962;50.838;4.430;2023-03-07T07:59:53;7.80;99.90
23568;DHT22;11962;50.838;4.430;2023-03-07T08:02:19;7.80;99.90
23568;DHT22;11962;50.838;4.430;2023-03-07T08:04:45;7.80;99.90
23568;DHT22;11962;50.838;4.430;2023-03-07T08:07:11;7.80;99.90
23568;DHT22;11962;50.838;4.430;2023-03-07T08:09:38;7.90;99.90
23568;DHT22;11962;50.838;4.430;2023-03-07T08:12:10;7.90;99.90
23568;DHT22;11962;50.838;4.430;2023-03-07T08:14:37;8.00;99.90
23568;DHT22;11962;50.838;4.430;2023-03-07T08:17:03;7.90;99.90
23568;DHT22;11962;50.838;4.430;2023-03-07T08:19:29;7.90;99.90
23568;DHT22;11962;50.838;4.430;2023-03-07T08:21:59;7.90;99.90
23568;DHT22;11962;50.838;4.430;2023-03-07T08:24:25;7.80;99.90
23568;DHT22;11962;50.838;4.430;2023-03-07T08:26:53;7.80;99.90
23568;DHT22;11962;50.838;4.430;2023-03-07T08:29:22;7.90;99.90
23568;DHT22;11962;50.838;4.430;2023-03-07T08:31:48;7.90;99.90
23568;DHT22;11962;50.838;4.430;2023-03-07T08:34:19;7.90;99.90
23568;DHT22;11962;50.838;4.430;2023-03-07T08:36:45;8.10;99.90
23568;DHT22;11962;50.838;4.430;2023-03-07T08:39:11;8.20;99.90
23568;DHT22;11962;50.838;4.430;2023-03-07T08:41:37;8.30;99.90
23568;DHT22;11962;50.838;4.430;2023-03-07T08:44:03;8.50;99.90
23568;DHT22;11962;50.838;4.430;2023-03-07T08:46:29;8.70;99.90
23568;DHT22;11962;50.838;4.430;2023-03-07T08:48:55;8.70;99.90
23568;DHT22;11962;50.838;4.430;2023-03-07T08:51:21;8.80;99.90
23568;DHT22;11962;50.838;4.430;2023-03-07T08:53:46;8.80;99.90
23568;DHT22;11962;50.838;4.430;2023-03-07T08:56:16;8.80;99.90
23568;DHT22;11962;50.838;4.430;2023-03-07T08:58:42;8.80;99.90
23568;DHT22;11962;50.838;4.430;2023-03-07T09:01:08;8.80;99.90
23568;DHT22;11962;50.838;4.430;2023-03-07T09:03:34;8.90;99.90
23568;DHT22;11962;50.838;4.430;2023-03-07T09:06:01;9.00;99.90
23568;DHT22;11962;50.838;4.430;2023-03-07T09:08:28;8.90;99.90
23568;DHT22;11962;50.838;4.430;2023-03-07T09:10:53;8.90;99.90
23568;DHT22;11962;50.838;4.430;2023-03-07T09:13:19;8.90;99.90
23568;DHT22;11962;50.838;4.430;2023-03-07T09:15:45;8.90;99.90
23568;DHT22;11962;50.838;4.430;2023-03-07T09:18:11;8.90;99.90
23568;DHT22;11962;50.838;4.430;2023-03-07T09:20:37;8.90;99.90
23568;DHT22;11962;50.838;4.430;2023-03-07T09:23:04;8.80;99.90
23568;DHT22;11962;50.838;4.430;2023-03-07T09:25:30;8.80;99.90
23568;DHT22;11962;50.838;4.430;2023-03-07T09:27:55;8.90;99.90
23568;DHT22;11962;50.838;4.430;2023-03-07T09:30:22;8.90;99.90
23568;DHT22;11962;50.838;4.430;2023-03-07T09:32:48;9.10;99.90
23568;DHT22;11962;50.838;4.430;2023-03-07T09:35:29;9.10;99.90
23568;DHT22;11962;50.838;4.430;2023-03-07T09:37:55;9.10;99.90
23568;DHT22;11962;50.838;4.430;2023-03-07T09:40:23;9.10;99.90
23568;DHT22;11962;50.838;4.430;2023-03-07T09:43:18;9.20;99.90
23568;DHT22;11962;50.838;4.430;2023-03-07T09:48:44;9.00;99.90
23568;DHT22;11962;50.838;4.430;2023-03-07T09:57:08;8.90;99.90
23568;DHT22;11962;50.838;4.430;2023-03-07T09:59:21;9.00;99.90
23568;DHT22;11962;50.838;4.430;2023-03-07T10:02:00;9.00;99.90
23568;DHT22;11962;50.838;4.430;2023-03-07T10:07:14;8.80;99.90
23568;DHT22;11962;50.838;4.430;2023-03-07T10:09:42;8.90;99.90
23568;DHT22;11962;50.838;4.430;2023-03-07T10:12:49;8.80;99.90
23568;DHT22;11962;50.838;4.430;2023-03-07T10:27:04;8.90;99.90
23568;DHT22;11962;50.838;4.430;2023-03-07T10:29:54;8.90;99.90
23568;DHT22;11962;50.838;4.430;2023-03-07T10:35:19;8.80;99.90
23568;DHT22;11962;50.838;4.430;2023-03-07T10:40:49;8.80;99.90
23568;DHT22;11962;50.838;4.430;2023-03-07T10:43:37;8.70;99.90
23568;DHT22;11962;50.838;4.430;2023-03-07T10:48:38;8.60;99.90
23568;DHT22;11962;50.838;4.430;2023-03-07T10:53:55;8.80;99.90
23568;DHT22;11962;50.838;4.430;2023-03-07T10:56:22;8.90;99.90
23568;DHT22;11962;50.838;4.430;2023-03-07T10:59:05;8.90;99.90
23568;DHT22;11962;50.838;4.430;2023-03-07T11:01:38;9.10;99.90
23568;DHT22;11962;50.838;4.430;2023-03-07T11:04:20;9.00;99.90
23568;DHT22;11962;50.838;4.430;2023-03-07T11:06:57;9.10;99.90
23568;DHT22;11962;50.838;4.430;2023-03-07T11:09:26;9.10;99.90
23568;DHT22;11962;50.838;4.430;2023-03-07T11:11:57;9.10;99.90
23568;DHT22;11962;50.838;4.430;2023-03-07T11:14:27;8.90;99.90
23568;DHT22;11962;50.838;4.430;2023-03-07T11:17:01;8.80;99.90
23568;DHT22;11962;50.838;4.430;2023-03-07T11:19:40;8.80;99.90
23568;DHT22;11962;50.838;4.430;2023-03-07T11:22:32;8.90;99.90
23568;DHT22;11962;50.838;4.430;2023-03-07T11:28:46;9.20;99.90
23568;DHT22;11962;50.838;4.430;2023-03-07T11:33:47;9.40;99.90
23568;DHT22;11962;50.838;4.430;2023-03-07T11:41:51;9.50;99.90
23568;DHT22;11962;50.838;4.430;2023-03-07T12:01:27;9.30;99.90
23568;DHT22;11962;50.838;4.430;2023-03-07T12:04:05;9.20;99.90
23568;DHT22;11962;50.838;4.430;2023-03-07T12:07:03;9.10;99.90
23568;DHT22;11962;50.838;4.430;2023-03-07T12:18:27;9.10;99.90
23568;DHT22;11962;50.838;4.430;2023-03-07T12:23:52;9.10;99.90
23568;DHT22;11962;50.838;4.430;2023-03-07T12:26:32;9.20;99.90
23568;DHT22;11962;50.838;4.430;2023-03-07T12:29:08;9.20;99.90
23568;DHT22;11962;50.838;4.430;2023-03-07T12:31:41;9.30;99.90
23568;DHT22;11962;50.838;4.430;2023-03-07T12:36:49;9.30;99.90
23568;DHT22;11962;50.838;4.430;2023-03-07T12:39:33;9.30;99.90
23568;DHT22;11962;50.838;4.430;2023-03-07T12:45:25;9.30;99.90
23568;DHT22;11962;50.838;4.430;2023-03-07T12:48:02;9.40;99.90
23568;DHT22;11962;50.838;4.430;2023-03-07T12:53:34;9.20;99.90
23568;DHT22;11962;50.838;4.430;2023-03-07T12:56:18;9.20;99.90
23568;DHT22;11962;50.838;4.430;2023-03-07T12:58:55;9.30;99.90
23568;DHT22;11962;50.838;4.430;2023-03-07T13:01:30;9.30;99.90
23568;DHT22;11962;50.838;4.430;2023-03-07T13:04:06;9.30;99.90
23568;DHT22;11962;50.838;4.430;2023-03-07T13:06:39;9.30;99.90
23568;DHT22;11962;50.838;4.430;2023-03-07T13:09:11;9.30;99.90
23568;DHT22;11962;50.838;4.430;2023-03-07T13:24:52;9.00;99.90
23568;DHT22;11962;50.838;4.430;2023-03-07T13:33:26;8.90;99.90
23568;DHT22;11962;50.838;4.430;2023-03-07T13:35:55;8.90;99.90
23568;DHT22;11962;50.838;4.430;2023-03-07T13:40:56;8.80;99.90
23568;DHT22;11962;50.838;4.430;2023-03-07T13:53:19;8.90;99.90
23568;DHT22;11962;50.838;4.430;2023-03-07T13:55:53;8.90;99.90
23568;DHT22;11962;50.838;4.430;2023-03-07T14:01:13;9.10;99.90
23568;DHT22;11962;50.838;4.430;2023-03-07T14:03:45;9.10;99.90
23568;DHT22;11962;50.838;4.430;2023-03-07T14:06:35;9.30;99.90
23568;DHT22;11962;50.838;4.430;2023-03-07T14:09:04;9.50;99.90
23568;DHT22;11962;50.838;4.430;2023-03-07T14:11:52;9.50;99.90
23568;DHT22;11962;50.838;4.430;2023-03-07T14:26:26;9.40;99.90
23568;DHT22;11962;50.838;4.430;2023-03-07T14:31:27;9.50;99.90
23568;DHT22;11962;50.838;4.430;2023-03-07T14:33:54;9.40;99.90
23568;DHT22;11962;50.838;4.430;2023-03-07T14:36:28;9.50;99.90
23568;DHT22;11962;50.838;4.430;2023-03-07T14:38:57;9.60;99.90
23568;DHT22;11962;50.838;4.430;2023-03-07T14:52:46;9.00;99.90
23568;DHT22;11962;50.838;4.430;2023-03-07T14:55:35;8.90;99.90
23568;DHT22;11962;50.838;4.430;2023-03-07T14:58:02;8.90;99.90
23568;DHT22;11962;50.838;4.430;2023-03-07T15:00:29;8.80;99.90
23568;DHT22;11962;50.838;4.430;2023-03-07T15:03:03;8.80;99.90
23568;DHT22;11962;50.838;4.430;2023-03-07T15:05:37;8.80;99.90
23568;DHT22;11962;50.838;4.430;2023-03-07T15:08:30;8.70;99.90
23568;DHT22;11962;50.838;4.430;2023-03-07T15:16:10;8.70;99.90
23568;DHT22;11962;50.838;4.430;2023-03-07T15:21:03;8.70;99.90
23568;DHT22;11962;50.838;4.430;2023-03-07T15:23:30;8.70;99.90
23568;DHT22;11962;50.838;4.430;2023-03-07T15:26:01;8.60;99.90
23568;DHT22;11962;50.838;4.430;2023-03-07T15:28:37;8.50;99.90
23568;DHT22;11962;50.838;4.430;2023-03-07T15:31:05;8.30;99.90
23568;DHT22;11962;50.838;4.430;2023-03-07T15:33:33;8.20;99.90
23568;DHT22;11962;50.838;4.430;2023-03-07T15:38:48;8.10;99.90
23568;DHT22;11962;50.838;4.430;2023-03-07T15:41:34;8.10;99.90
23568;DHT22;11962;50.838;4.430;2023-03-07T15:47:13;8.10;99.90
23568;DHT22;11962;50.838;4.430;2023-03-07T15:49:47;8.00;99.90
23568;DHT22;11962;50.838;4.430;2023-03-07T15:54:53;8.00;99.90
23568;DHT22;11962;50.838;4.430;2023-03-07T15:57:21;7.90;99.90
23568;DHT22;11962;50.838;4.430;2023-03-07T16:00:00;7.90;99.90
23568;DHT22;11962;50.838;4.430;2023-03-07T16:04:56;7.90;99.90
23568;DHT22;11962;50.838;4.430;2023-03-07T16:07:21;8.00;99.90
23568;DHT22;11962;50.838;4.430;2023-03-07T16:09:47;8.00;99.90
23568;DHT22;11962;50.838;4.430;2023-03-07T16:12:16;8.00;99.90
23568;DHT22;11962;50.838;4.430;2023-03-07T16:14:43;8.00;99.90
23568;DHT22;11962;50.838;4.430;2023-03-07T16:17:29;8.00;99.90
23568;DHT22;11962;50.838;4.430;2023-03-07T16:19:57;8.00;99.90
23568;DHT22;11962;50.838;4.430;2023-03-07T16:22:23;7.90;99.90
23568;DHT22;11962;50.838;4.430;2023-03-07T16:24:49;7.80;99.90
23568;DHT22;11962;50.838;4.430;2023-03-07T16:27:20;7.70;99.90
23568;DHT22;11962;50.838;4.430;2023-03-07T16:29:46;7.70;99.90
23568;DHT22;11962;50.838;4.430;2023-03-07T16:32:14;7.60;99.90
23568;DHT22;11962;50.838;4.430;2023-03-07T16:34:40;7.50;99.90
23568;DHT22;11962;50.838;4.430;2023-03-07T16:37:06;7.50;99.90
23568;DHT22;11962;50.838;4.430;2023-03-07T16:39:32;7.50;99.90
23568;DHT22;11962;50.838;4.430;2023-03-07T16:41:58;7.40;99.90
23568;DHT22;11962;50.838;4.430;2023-03-07T16:44:24;7.40;99.90
23568;DHT22;11962;50.838;4.430;2023-03-07T16:49:28;7.50;99.90
23568;DHT22;11962;50.838;4.430;2023-03-07T16:51:54;7.50;99.90
23568;DHT22;11962;50.838;4.430;2023-03-07T16:54:20;7.50;99.90
23568;DHT22;11962;50.838;4.430;2023-03-07T16:56:49;7.40;99.90
23568;DHT22;11962;50.838;4.430;2023-03-07T16:59:17;7.40;99.90
23568;DHT22;11962;50.838;4.430;2023-03-07T17:04:46;7.30;99.90
23568;DHT22;11962;50.838;4.430;2023-03-07T17:07:17;7.20;99.90
23568;DHT22;11962;50.838;4.430;2023-03-07T17:09:43;7.10;99.90
23568;DHT22;11962;50.838;4.430;2023-03-07T17:12:10;7.10;99.90
23568;DHT22;11962;50.838;4.430;2023-03-07T17:14:39;7.10;99.90
23568;DHT22;11962;50.838;4.430;2023-03-07T17:17:26;7.10;99.90
23568;DHT22;11962;50.838;4.430;2023-03-07T17:19:52;7.10;99.90
23568;DHT22;11962;50.838;4.430;2023-03-07T17:22:18;7.00;99.90
23568;DHT22;11962;50.838;4.430;2023-03-07T17:24:43;7.00;99.90
23568;DHT22;11962;50.838;4.430;2023-03-07T17:27:09;7.10;99.90
23568;DHT22;11962;50.838;4.430;2023-03-07T17:29:39;7.10;99.90
23568;DHT22;11962;50.838;4.430;2023-03-07T17:32:11;7.00;99.90
23568;DHT22;11962;50.838;4.430;2023-03-07T17:34:37;7.00;99.90
23568;DHT22;11962;50.838;4.430;2023-03-07T17:37:04;6.90;99.90
23568;DHT22;11962;50.838;4.430;2023-03-07T17:39:31;6.90;99.90
23568;DHT22;11962;50.838;4.430;2023-03-07T17:41:59;6.90;99.90
23568;DHT22;11962;50.838;4.430;2023-03-07T17:44:25;6.90;99.90
23568;DHT22;11962;50.838;4.430;2023-03-07T17:46:52;6.90;99.90
23568;DHT22;11962;50.838;4.430;2023-03-07T17:49:18;6.90;99.90
23568;DHT22;11962;50.838;4.430;2023-03-07T17:51:44;6.90;99.90
23568;DHT22;11962;50.838;4.430;2023-03-07T17:54:10;6.90;99.90
23568;DHT22;11962;50.838;4.430;2023-03-07T17:56:36;6.90;99.90
23568;DHT22;11962;50.838;4.430;2023-03-07T17:59:02;6.90;99.90
23568;DHT22;11962;50.838;4.430;2023-03-07T18:01:29;7.00;99.90
23568;DHT22;11962;50.838;4.430;2023-03-07T18:03:56;7.00;99.90
23568;DHT22;11962;50.838;4.430;2023-03-07T18:06:22;7.00;99.90
23568;DHT22;11962;50.838;4.430;2023-03-07T18:08:49;7.00;99.90
23568;DHT22;11962;50.838;4.430;2023-03-07T18:11:15;7.00;99.90
23568;DHT22;11962;50.838;4.430;2023-03-07T18:13:41;7.00;99.90
23568;DHT22;11962;50.838;4.430;2023-03-07T18:16:07;7.00;99.90
23568;DHT22;11962;50.838;4.430;2023-03-07T18:18:35;7.00;99.90
23568;DHT22;11962;50.838;4.430;2023-03-07T18:21:13;6.90;99.90
23568;DHT22;11962;50.838;4.430;2023-03-07T18:23:41;7.00;99.90
23568;DHT22;11962;50.838;4.430;2023-03-07T18:26:12;6.90;99.90
23568;DHT22;11962;50.838;4.430;2023-03-07T18:28:41;6.80;99.90
23568;DHT22;11962;50.838;4.430;2023-03-07T18:31:19;6.80;99.90
23568;DHT22;11962;50.838;4.430;2023-03-07T18:33:49;6.70;99.90
23568;DHT22;11962;50.838;4.430;2023-03-07T18:36:15;6.60;99.90
23568;DHT22;11962;50.838;4.430;2023-03-07T18:38:42;6.60;99.90
23568;DHT22;11962;50.838;4.430;2023-03-07T18:41:11;6.60;99.90
23568;DHT22;11962;50.838;4.430;2023-03-07T18:43:38;6.60;99.90
23568;DHT22;11962;50.838;4.430;2023-03-07T18:46:09;6.70;99.90
23568;DHT22;11962;50.838;4.430;2023-03-07T18:48:50;6.70;99.90